createdAt,value
2022-11-15T00:03:06.744Z,6.28
2022-11-15T00:08:47.741Z,6.20
2022-11-15T00:14:28.436Z,6.25
2022-11-15T00:20:09.633Z,6.12
2022-11-15T00:25:57.594Z,5.95
2022-11-15T00:31:38.416Z,5.89
2022-11-15T00:37:19.029Z,5.74
2022-11-15T00:43:00.441Z,5.67
2022-11-15T00:48:41.238Z,5.52
2022-11-15T00:54:34.374Z,5.39
2022-11-15T01:00:15.888Z,5.48
2022-11-15T01:06:00.890Z,5.60
2022-11-15T01:11:42.183Z,5.57
2022-11-15T01:17:23.075Z,5.38
2022-11-15T01:23:04.175Z,5.34
2022-11-15T01:28:45.268Z,5.31
2022-11-15T01:34:26.466Z,5.15
2022-11-15T01:40:07.944Z,5.23
2022-11-15T01:45:54.696Z,5.20
2022-11-15T01:51:35.576Z,5.07
2022-11-15T01:57:16.673Z,4.99
2022-11-15T02:02:57.367Z,4.97
2022-11-15T02:08:38.164Z,4.99
2022-11-15T02:14:20.966Z,5.02
2022-11-15T02:20:37.687Z,5.07
2022-11-15T02:26:40.171Z,4.97
2022-11-15T02:32:49.358Z,4.86
2022-11-15T02:38:35.869Z,4.68
2022-11-15T02:44:26.312Z,4.56
2022-11-15T02:50:10.609Z,4.43
2022-11-15T02:55:52.607Z,4.43
2022-11-15T03:01:43.951Z,4.55
2022-11-15T03:07:36.275Z,4.61
2022-11-15T03:13:28.129Z,4.73
2022-11-15T03:19:18.939Z,4.74
2022-11-15T03:25:02.367Z,4.83
2022-11-15T03:30:44.144Z,4.78
2022-11-15T03:36:26.146Z,4.74
2022-11-15T03:42:24.200Z,4.70
2022-11-15T03:48:26.012Z,4.82
2022-11-15T03:54:07.164Z,5.18
2022-11-15T03:59:48.391Z,5.45
2022-11-15T04:05:29.660Z,5.40
2022-11-15T04:11:10.762Z,5.21
2022-11-15T04:16:51.552Z,5.11
2022-11-15T04:22:50.711Z,5.07
2022-11-15T04:28:31.397Z,4.96
2022-11-15T04:34:12.205Z,4.90
2022-11-15T04:39:53.017Z,4.70
2022-11-15T04:45:34.095Z,4.66
2022-11-15T04:51:15.101Z,4.78
2022-11-15T04:56:56.289Z,4.86
2022-11-15T05:02:55.498Z,5.03
2022-11-15T05:08:36.268Z,5.27
2022-11-15T05:14:17.449Z,5.20
2022-11-15T05:19:58.425Z,5.30
2022-11-15T05:25:39.857Z,5.27
2022-11-15T05:31:20.528Z,4.98
2022-11-15T05:37:01.025Z,4.82
2022-11-15T05:42:41.719Z,4.54
2022-11-15T05:48:22.110Z,4.41
2022-11-15T05:54:03.249Z,4.36
2022-11-15T05:59:44.604Z,4.18
2022-11-15T06:05:25.400Z,4.02
2022-11-15T06:11:07.274Z,4.02
2022-11-15T06:16:47.696Z,4.04
2022-11-15T06:22:28.490Z,3.98
2022-11-15T06:28:09.486Z,3.98
2022-11-15T06:33:50.722Z,3.87
2022-11-15T06:39:31.783Z,3.70
2022-11-15T06:45:12.274Z,3.68
2022-11-15T06:50:53.696Z,3.66
2022-11-15T06:56:35.035Z,3.71
2022-11-15T07:02:17.876Z,3.68
2022-11-15T07:07:59.708Z,3.74
2022-11-15T07:13:40.469Z,3.83
2022-11-15T07:19:20.961Z,4.00
2022-11-15T07:25:01.538Z,4.21
2022-11-15T07:30:45.385Z,4.36
2022-11-15T07:36:26.560Z,4.38
2022-11-15T07:42:25.623Z,4.48
2022-11-15T07:48:07.746Z,4.65
2022-11-15T07:53:48.663Z,4.73
2022-11-15T07:59:29.237Z,4.89
2022-11-15T08:05:10.053Z,5.09
2022-11-15T08:10:50.804Z,5.35
2022-11-15T08:16:31.843Z,5.64
2022-11-15T08:22:14.817Z,6.04
2022-11-15T08:27:58.535Z,6.47
2022-11-15T08:33:39.406Z,6.71
2022-11-15T08:39:20.170Z,6.93
2022-11-15T08:45:00.765Z,7.34
2022-11-15T08:50:41.445Z,7.79
2022-11-15T08:56:22.183Z,8.23
2022-11-15T09:02:03.822Z,8.55
2022-11-15T09:07:44.806Z,8.80
2022-11-15T09:13:25.430Z,9.02
2022-11-15T09:19:11.474Z,9.20
2022-11-15T09:24:52.437Z,9.43
2022-11-15T09:30:33.451Z,9.71
2022-11-15T09:36:14.392Z,9.93
2022-11-15T09:42:16.861Z,10.16
2022-11-15T09:48:19.941Z,10.36
2022-11-15T10:00:46.420Z,10.77
2022-11-15T10:06:25.706Z,11.13
2022-11-15T10:11:47.485Z,11.35
2022-11-15T10:17:28.344Z,11.49
2022-11-15T10:23:00.876Z,11.54
2022-11-15T10:28:26.211Z,11.58
2022-11-15T10:33:48.159Z,11.63
2022-11-15T10:39:13.447Z,11.59
2022-11-15T10:44:42.983Z,11.67
2022-11-15T10:50:27.810Z,11.80
2022-11-15T10:55:51.417Z,11.99
2022-11-15T11:01:19.053Z,12.16
2022-11-15T11:06:51.489Z,12.25
2022-11-15T11:12:13.325Z,12.35
2022-11-15T11:18:11.863Z,12.42
2022-11-15T11:23:45.029Z,12.44
2022-11-15T11:29:26.060Z,12.43
2022-11-15T11:35:14.924Z,12.45
2022-11-15T11:41:00.360Z,12.46
2022-11-15T11:46:31.439Z,12.53
2022-11-15T11:51:56.382Z,12.58
2022-11-15T11:57:30.496Z,12.69
2022-11-15T12:03:12.537Z,12.79
2022-11-15T12:08:51.145Z,12.83
2022-11-15T12:14:26.377Z,12.86
2022-11-15T12:19:48.563Z,12.96
2022-11-15T12:25:19.997Z,13.03
2022-11-15T12:30:53.270Z,13.09
2022-11-15T12:36:24.019Z,13.06
2022-11-15T12:41:58.098Z,13.02
2022-11-15T12:47:25.555Z,13.05
2022-11-15T12:53:25.814Z,13.05
2022-11-15T12:58:52.778Z,13.05
2022-11-15T13:04:20.972Z,13.04
2022-11-15T13:09:42.569Z,13.09
2022-11-15T13:15:13.131Z,13.09
2022-11-15T13:20:35.241Z,13.06
2022-11-15T13:26:17.673Z,13.08
2022-11-15T13:31:43.605Z,13.10
2022-11-15T13:37:12.823Z,13.04
2022-11-15T13:42:35.522Z,12.94
2022-11-15T13:47:59.281Z,12.90
2022-11-15T13:53:21.508Z,12.90
2022-11-15T13:58:43.349Z,12.84
2022-11-15T14:04:05.347Z,12.81
2022-11-15T14:09:34.034Z,12.77
2022-11-15T14:14:56.086Z,12.77
2022-11-15T14:20:26.701Z,12.82
2022-11-15T14:25:56.425Z,12.85
2022-11-15T14:31:18.494Z,12.83
2022-11-15T14:36:42.574Z,12.80
2022-11-15T14:42:06.501Z,12.75
2022-11-15T14:47:28.193Z,12.73
2022-11-15T14:52:50.212Z,12.66
2022-11-15T14:58:12.050Z,12.61
2022-11-15T15:03:34.172Z,12.56
2022-11-15T15:08:56.113Z,12.50
2022-11-15T15:14:17.931Z,12.39
2022-11-15T15:19:39.630Z,12.41
2022-11-15T15:25:01.559Z,12.41
2022-11-15T15:30:24.267Z,12.36
2022-11-15T15:35:46.196Z,12.27
2022-11-15T15:41:15.687Z,12.16
2022-11-15T15:46:37.754Z,11.94
2022-11-15T15:51:59.391Z,11.69
2022-11-15T15:57:21.355Z,11.59
2022-11-15T16:02:43.670Z,11.66
2022-11-15T16:08:05.834Z,11.76
2022-11-15T16:13:27.423Z,11.85
2022-11-15T16:18:49.068Z,11.89
2022-11-15T16:24:11.090Z,11.88
2022-11-15T16:29:32.943Z,11.78
2022-11-15T16:34:56.170Z,11.61
2022-11-15T16:40:33.587Z,11.58
2022-11-15T16:45:55.473Z,11.51
2022-11-15T16:51:18.084Z,11.47
2022-11-15T16:56:40.785Z,11.49
2022-11-15T17:02:02.746Z,11.44
2022-11-15T17:07:25.352Z,11.47
2022-11-15T17:12:47.270Z,11.51
2022-11-15T17:18:13.514Z,11.54
2022-11-15T17:23:36.263Z,11.53
2022-11-15T17:28:58.079Z,11.47
2022-11-15T17:34:19.607Z,11.31
2022-11-15T17:39:41.665Z,11.40
2022-11-15T17:45:09.322Z,11.43
2022-11-15T17:50:31.871Z,11.39
2022-11-15T17:55:54.350Z,11.27
2022-11-15T18:01:25.082Z,11.11
2022-11-15T18:06:47.511Z,11.09
2022-11-15T18:12:09.958Z,11.17
2022-11-15T18:17:32.105Z,11.18
2022-11-15T18:22:54.592Z,11.22
2022-11-15T18:28:16.290Z,11.32
2022-11-15T18:33:38.166Z,11.35
2022-11-15T18:39:05.085Z,11.22
2022-11-15T18:44:29.132Z,11.12
2022-11-15T18:49:51.014Z,11.04
2022-11-15T18:55:14.507Z,10.97
2022-11-15T19:00:36.598Z,10.96
2022-11-15T19:06:15.995Z,10.97
2022-11-15T19:11:39.900Z,10.98
2022-11-15T19:17:01.735Z,10.95
2022-11-15T19:22:23.618Z,10.98
2022-11-15T19:27:45.583Z,10.90
2022-11-15T19:33:07.487Z,10.82
2022-11-15T19:38:33.495Z,10.80
2022-11-15T19:43:55.725Z,10.69
2022-11-15T19:49:17.773Z,10.65
2022-11-15T19:54:39.954Z,10.57
2022-11-15T20:00:06.830Z,10.49
2022-11-15T20:05:29.522Z,10.51
2022-11-15T20:10:51.249Z,10.50
2022-11-15T20:16:18.857Z,10.56
2022-11-15T20:21:40.896Z,10.66
2022-11-15T20:27:02.389Z,10.74
2022-11-15T20:32:24.413Z,10.79
2022-11-15T20:37:46.452Z,10.80
2022-11-15T20:43:13.116Z,10.80
2022-11-15T20:48:35.507Z,10.78
2022-11-15T20:53:58.332Z,10.69
2022-11-15T20:59:20.254Z,10.72
2022-11-15T21:04:42.139Z,10.77
2022-11-15T21:10:23.025Z,10.78
2022-11-15T21:15:45.072Z,10.72
2022-11-15T21:21:07.652Z,10.71
2022-11-15T21:26:29.689Z,10.74
2022-11-15T21:31:52.711Z,10.77
2022-11-15T21:37:14.634Z,10.80
2022-11-15T21:42:37.134Z,10.79
2022-11-15T21:47:59.183Z,10.76
2022-11-15T21:53:20.925Z,10.74
2022-11-15T21:58:42.653Z,10.70
2022-11-15T22:04:42.610Z,10.68
2022-11-15T22:10:05.021Z,10.71
2022-11-15T22:15:27.215Z,10.67
2022-11-15T22:21:13.608Z,10.68
2022-11-15T22:26:35.737Z,10.67
2022-11-15T22:31:57.798Z,10.64
2022-11-15T22:37:21.167Z,10.53
2022-11-15T22:42:43.619Z,10.53
2022-11-15T22:48:05.848Z,10.53
2022-11-15T22:53:28.981Z,10.59
2022-11-15T22:58:51.015Z,10.64
2022-11-15T23:04:13.040Z,10.64
2022-11-15T23:09:35.071Z,10.47
2022-11-15T23:14:57.024Z,10.44
2022-11-15T23:20:41.963Z,10.47
2022-11-15T23:26:01.693Z,10.49
2022-11-15T23:31:42.226Z,10.55
2022-11-15T23:37:05.446Z,10.55
2022-11-15T23:42:27.692Z,10.58
2022-11-15T23:47:49.613Z,10.59
2022-11-15T23:53:11.737Z,10.53
2022-11-15T23:58:34.547Z,10.48
